Federal Matane — V2CF1 — position and weather

sailwx.info

Track history (hours):
 
Tides and Currents Weather Stations Pressure Air Temp Water Temp Dewpoint Dewpoint Depression Visibility Wind Speed Wind Dir Waves Ship Positions

Federal Matane

Last reported at 2018-Feb-03 06:30 UTC. Time now 2018-Feb-23 10:47 UTC.
Position N 37°11' E 012°13'.
Warning: this ship's position is 20 days out of date.

Length 185.1 m; beam 23.5 m; draft 9.8 m.

Type: Ship. MMSI: 304604000.

Date/timePositionNaut miles runAvg speedWind from/ knotsBaromVisibWave heightAir tempDewpointWater temp
2018-Feb-03 06:30N 37°11' E 012°13'712.3
2018-Feb-03 05:57N 37°09' E 012°21'511.8
2018-Feb-03 05:30N 37°08' E 012°27'611.9
2018-Feb-03 05:00N 37°06' E 012°35'1211.9
2018-Feb-03 04:00N 37°03' E 012°49'612.4
2018-Feb-03 03:30N 37°02' E 012°57'1912.6
2018-Feb-03 02:00N 36°57' E 013°19'612.8
2018-Feb-03 01:30N 36°55' E 013°27'712.9
2018-Feb-03 01:00N 36°54' E 013°35'713.1
2018-Feb-03 00:30N 36°52' E 013°43'612.7
2018-Feb-03 00:00N 36°50' E 013°51'612.9
2018-Feb-02 23:31N 36°48' E 013°58'612.9
2018-Feb-02 23:00N 36°46' E 014°06'713.1
2018-Feb-02 22:30N 36°44' E 014°14'612.7
2018-Feb-02 22:00N 36°43' E 014°21'612.2
2018-Feb-02 21:30N 36°41' E 014°29'611.8
2018-Feb-02 20:58N 36°39' E 014°36'3812.6
2018-Feb-02 17:59N 36°33' E 015°22'613.1
2018-Feb-02 17:30N 36°34' E 015°30'613.1
2018-Feb-02 17:00N 36°34' E 015°38'  
2018-Jan-28 18:18N 46°15' E 030°54'412.1
2018-Jan-28 18:00N 46°19' E 030°55'612.3
2018-Jan-28 17:30N 46°25' E 030°55'612.5
2018-Jan-28 17:00N 46°31' E 030°55'510.8
2018-Jan-28 16:30N 46°34' E 031°02'5 9.0
2018-Jan-28 16:00N 46°35' E 031°08'31 9.9
2018-Jan-28 12:54N 46°37' E 031°53'3 8.8
2018-Jan-28 12:30N 46°40' E 031°56'4 8.6
2018-Jan-28 12:00N 46°44' E 031°55'3 6.6
2018-Jan-28 11:30N 46°48' E 031°53'5 9.1
2018-Jan-28 10:59N 46°51' E 031°57'1 1.7
2018-Jan-28 10:29N 46°51' E 031°59'0 0.0
2018-Jan-28 10:00N 46°51' E 031°59'0 0.0
2018-Jan-28 09:30N 46°51' E 031°59'0 0.0
2018-Jan-28 09:00N 46°51' E 031°59'0 0.0
2018-Jan-28 08:30N 46°51' E 031°59'0 0.0
2018-Jan-28 08:00N 46°51' E 031°59'0 0.0
2018-Jan-28 07:30N 46°51' E 031°59'0 0.0
2018-Jan-28 07:00N 46°51' E 031°59'0 0.0
2018-Jan-28 06:30N 46°51' E 031°59'0 0.0
2018-Jan-28 06:00N 46°51' E 031°59'0 0.0
2018-Jan-28 05:26N 46°51' E 031°59'0 0.0
2018-Jan-28 05:00N 46°51' E 031°59'0 0.0
2018-Jan-28 04:24N 46°51' E 031°59'0 0.0
2018-Jan-28 03:56N 46°51' E 031°59'0 0.0
2018-Jan-28 03:30N 46°51' E 031°59'0 0.0
2018-Jan-28 03:00N 46°51' E 031°59'0 0.0
2018-Jan-28 02:30N 46°51' E 031°59'0 0.0
2018-Jan-28 02:00N 46°51' E 031°59'0 0.0
2018-Jan-28 01:30N 46°51' E 031°59'0 0.0
2018-Jan-28 01:00N 46°51' E 031°59'0 0.0
2018-Jan-28 00:30N 46°51' E 031°59'0 0.0
2018-Jan-28 00:00N 46°51' E 031°59'0 0.0
2018-Jan-27 23:30N 46°51' E 031°59'0 0.0
2018-Jan-27 23:00N 46°51' E 031°59'0 0.0
2018-Jan-27 22:30N 46°51' E 031°59'0 0.0
2018-Jan-27 22:00N 46°51' E 031°59'0 0.0
2018-Jan-27 21:30N 46°51' E 031°59'0 0.0
2018-Jan-27 21:00N 46°51' E 031°59'0 0.0
2018-Jan-27 20:26N 46°51' E 031°59'0 0.0
2018-Jan-27 20:00N 46°51' E 031°59'0 0.0
2018-Jan-27 19:30N 46°51' E 031°59'0 0.0
2018-Jan-27 19:00N 46°51' E 031°59'0 0.0
2018-Jan-27 18:30N 46°51' E 031°59'0 0.0
2018-Jan-27 18:00N 46°51' E 031°59'0 0.0
2018-Jan-27 17:30N 46°51' E 031°59'0 0.0
2018-Jan-27 16:54N 46°51' E 031°59'0 0.0
2018-Jan-27 16:30N 46°51' E 031°59'0 0.0
2018-Jan-27 15:54N 46°51' E 031°59'0 0.0
2018-Jan-27 15:30N 46°51' E 031°59'0 0.0
2018-Jan-27 15:00N 46°51' E 031°59'0 0.0
2018-Jan-27 14:30N 46°51' E 031°59'0 0.0
2018-Jan-27 14:00N 46°51' E 031°59'0 0.0
2018-Jan-27 13:30N 46°51' E 031°59'0 0.0
2018-Jan-27 13:00N 46°51' E 031°59'0 0.0
2018-Jan-27 12:30N 46°51' E 031°59'0 0.0
2018-Jan-27 11:57N 46°51' E 031°59'0 0.0
2018-Jan-27 11:30N 46°51' E 031°59'0 0.0
2018-Jan-27 10:57N 46°51' E 031°59'0 0.0
2018-Jan-27 10:30N 46°51' E 031°59'0 0.0
2018-Jan-27 10:00N 46°51' E 031°59'0 0.0
2018-Jan-27 09:30N 46°51' E 031°59'0 0.0
2018-Jan-27 09:00N 46°51' E 031°59'0 0.0
2018-Jan-27 08:30N 46°51' E 031°59'0 0.0
2018-Jan-27 08:00N 46°51' E 031°59'0 0.0
2018-Jan-27 07:30N 46°51' E 031°59'0 0.0
2018-Jan-27 07:00N 46°51' E 031°59'0 0.0
2018-Jan-27 06:30N 46°51' E 031°59'0 0.0
2018-Jan-27 05:57N 46°51' E 031°59'0 0.0
2018-Jan-27 05:30N 46°51' E 031°59'0 0.0
2018-Jan-27 04:57N 46°51' E 031°59'0 0.0
2018-Jan-27 04:30N 46°51' E 031°59'0 0.0
2018-Jan-27 04:00N 46°51' E 031°59'0 0.0
2018-Jan-27 03:27N 46°51' E 031°59'0 0.0
2018-Jan-27 03:00N 46°51' E 031°59'0 0.0
2018-Jan-27 02:30N 46°51' E 031°59'0 0.0
2018-Jan-27 02:00N 46°51' E 031°59'0 0.0
2018-Jan-27 01:30N 46°51' E 031°59'0 0.0
2018-Jan-27 01:00N 46°51' E 031°59'0 0.0
2018-Jan-27 00:30N 46°51' E 031°59'0 0.0
2018-Jan-26 23:58N 46°51' E 031°59'0 0.0
2018-Jan-26 23:28N 46°51' E 031°59'0 0.0
2018-Jan-26 22:58N 46°51' E 031°59'0 0.0
2018-Jan-26 22:28N 46°51' E 031°59'0 0.0
2018-Jan-26 21:58N 46°51' E 031°59'0 0.0
2018-Jan-26 21:25N 46°51' E 031°59'0 0.0
2018-Jan-26 20:58N 46°51' E 031°59'0 0.0
2018-Jan-26 20:28N 46°51' E 031°59'0 0.0
2018-Jan-26 19:58N 46°51' E 031°59'0 0.0
2018-Jan-26 19:28N 46°51' E 031°59'0 0.0
2018-Jan-26 18:58N 46°51' E 031°59'0 0.0
2018-Jan-26 18:28N 46°51' E 031°59'0 0.0
2018-Jan-26 17:58N 46°51' E 031°59'0 0.0
2018-Jan-26 17:28N 46°51' E 031°59'0 0.0
2018-Jan-26 16:58N 46°51' E 031°59'0 0.0
2018-Jan-26 16:28N 46°51' E 031°59'0 0.0
2018-Jan-26 15:58N 46°51' E 031°59'0 0.0
2018-Jan-26 15:28N 46°51' E 031°59'0 0.0
2018-Jan-26 14:58N 46°51' E 031°59'0 0.0
2018-Jan-26 14:28N 46°51' E 031°59'0 0.0
2018-Jan-26 13:58N 46°51' E 031°59'0 0.0
2018-Jan-26 13:28N 46°51' E 031°59'0 0.0
2018-Jan-26 12:58N 46°51' E 031°59'0 0.0
2018-Jan-26 12:28N 46°51' E 031°59'0 0.0
2018-Jan-26 11:58N 46°51' E 031°59'0 0.0
2018-Jan-26 11:28N 46°51' E 031°59'0 0.0
2018-Jan-26 10:59N 46°51' E 031°59'0 0.0
2018-Jan-26 10:29N 46°51' E 031°59'0 0.0
2018-Jan-26 09:59N 46°51' E 031°59'0 0.0
2018-Jan-26 09:29N 46°51' E 031°59'0 0.0
2018-Jan-26 08:59N 46°51' E 031°59'0 0.0
2018-Jan-26 08:29N 46°51' E 031°59'0 0.0
2018-Jan-26 07:59N 46°51' E 031°59'0 0.0
2018-Jan-26 07:29N 46°51' E 031°59'0 0.0
2018-Jan-26 06:59N 46°51' E 031°59'0 0.0
2018-Jan-26 06:29N 46°51' E 031°59'0 0.0
2018-Jan-26 05:59N 46°51' E 031°59'0 0.0
2018-Jan-26 05:29N 46°51' E 031°59'0 0.0
2018-Jan-26 04:59N 46°51' E 031°59'0 0.0
2018-Jan-26 04:29N 46°51' E 031°59'0 0.0
2018-Jan-26 03:59N 46°51' E 031°59'0 0.0
2018-Jan-26 03:29N 46°51' E 031°59'0 0.0
2018-Jan-26 02:59N 46°51' E 031°59'0 0.0
2018-Jan-26 02:29N 46°51' E 031°59'0 0.0
2018-Jan-26 01:59N 46°51' E 031°59'0 0.0
2018-Jan-26 01:29N 46°51' E 031°59'0 0.0
2018-Jan-26 00:59N 46°51' E 031°59'0 0.0
2018-Jan-26 00:29N 46°51' E 031°59'0 0.0
2018-Jan-25 23:59N 46°51' E 031°59'0 0.0
2018-Jan-25 23:29N 46°51' E 031°59'0 0.0
2018-Jan-25 22:59N 46°51' E 031°59'0 0.0
2018-Jan-25 22:29N 46°51' E 031°59'0 0.0
2018-Jan-25 21:59N 46°51' E 031°59'0 0.0
2018-Jan-25 21:29N 46°51' E 031°59'0 0.0
2018-Jan-25 20:56N 46°51' E 031°59'0 0.0
2018-Jan-25 20:29N 46°51' E 031°59'0 0.0
2018-Jan-25 19:59N 46°51' E 031°59'0 0.0
2018-Jan-25 19:26N 46°51' E 031°59'0 0.0
2018-Jan-25 18:56N 46°51' E 031°59'0 0.0
2018-Jan-25 18:29N 46°51' E 031°59'0 0.0
2018-Jan-25 17:59N 46°51' E 031°59'0 0.0
2018-Jan-25 17:29N 46°51' E 031°59'0 0.0
2018-Jan-25 16:59N 46°51' E 031°59'0 0.0
2018-Jan-25 16:29N 46°51' E 031°59'0 0.0
2018-Jan-25 15:59N 46°51' E 031°59'0 0.0
2018-Jan-25 15:29N 46°51' E 031°59'0 0.0
2018-Jan-25 14:59N 46°51' E 031°59'0 0.0
2018-Jan-25 14:29N 46°51' E 031°59'0 0.0
2018-Jan-25 13:59N 46°51' E 031°59'0 0.0
2018-Jan-25 13:29N 46°51' E 031°59'0 0.0
2018-Jan-25 12:59N 46°51' E 031°59'0 0.0
2018-Jan-25 12:29N 46°51' E 031°59'0 0.0
2018-Jan-25 11:59N 46°51' E 031°59'0 0.0
2018-Jan-25 11:30N 46°51' E 031°59'0 0.0
2018-Jan-25 11:00N 46°51' E 031°59'0 0.0
2018-Jan-25 10:30N 46°51' E 031°59'0 0.0
2018-Jan-25 10:00N 46°51' E 031°59'0 0.0
2018-Jan-25 09:30N 46°51' E 031°59'0 0.0
2018-Jan-25 08:59N 46°51' E 031°59'0 0.0
2018-Jan-25 08:29N 46°51' E 031°59'0 0.0
2018-Jan-25 08:00N 46°51' E 031°59'0 0.0
2018-Jan-25 07:29N 46°51' E 031°59'0 0.0
2018-Jan-25 06:59N 46°51' E 031°59'0 0.0
2018-Jan-25 06:30N 46°51' E 031°59'0 0.0
2018-Jan-25 05:59N 46°51' E 031°59'0 0.0
2018-Jan-25 05:30N 46°51' E 031°59'0 0.0
2018-Jan-25 05:00N 46°51' E 031°59'0 0.0
2018-Jan-25 04:29N 46°51' E 031°59'0 0.0
2018-Jan-25 04:00N 46°51' E 031°59'0 0.0
2018-Jan-25 03:29N 46°51' E 031°59'0 0.0
2018-Jan-25 02:57N 46°51' E 031°59'0 0.0
2018-Jan-25 02:29N 46°51' E 031°59'0 0.0
2018-Jan-25 02:00N 46°51' E 031°59'0 0.0
2018-Jan-25 01:30N 46°51' E 031°59'0 0.0
2018-Jan-25 00:59N 46°51' E 031°59'0 0.0
2018-Jan-25 00:30N 46°51' E 031°59'0 0.0
2018-Jan-25 00:00N 46°51' E 031°59'0 0.0
2018-Jan-24 23:29N 46°51' E 031°59'0 0.0
2018-Jan-24 22:59N 46°51' E 031°59'0 0.0
2018-Jan-24 22:29N 46°51' E 031°59'0 0.0
2018-Jan-24 22:00N 46°51' E 031°59'1 1.7
2018-Jan-24 21:30N 46°51' E 031°58'3 5.3
2018-Jan-24 21:00N 46°49' E 031°55'5 9.4
2018-Jan-24 20:30N 46°45' E 031°54'510.5
2018-Jan-24 20:00N 46°40' E 031°56'611.1
2018-Jan-24 19:29N 46°36' E 031°49'611.4
2018-Jan-24 19:00N 46°36' E 031°41'611.2
2018-Jan-24 18:27N 46°34' E 031°32'6 8.8
2018-Jan-24 17:49N 46°35' E 031°24'412.4
2018-Jan-24 17:31N 46°35' E 031°19'612.5
2018-Jan-24 17:00N 46°35' E 031°10'611.5
2018-Jan-24 16:30N 46°34' E 031°02'3 5.9
2018-Jan-24 16:00N 46°33' E 030°57'4 7.2
2018-Jan-24 15:30N 46°29' E 030°57'4 8.4
2018-Jan-24 15:00N 46°25' E 030°57'611.6
2018-Jan-24 14:31N 46°19' E 030°57'712.6
2018-Jan-24 13:55N 46°13' E 031°03'  
Track history (hours):
 
Tides and Currents Weather Stations Pressure Air Temp Water Temp Dewpoint Dewpoint Depression Visibility Wind Speed Wind Dir Waves Ship Positions

Federal Matane

Last reported at 2018-Feb-03 06:30 UTC. Time now 2018-Feb-23 10:47 UTC.
Position N 37°11' E 012°13'.
Warning: this ship's position is 20 days out of date.

Length 185.1 m; beam 23.5 m; draft 9.8 m.

Type: Ship. MMSI: 304604000.

Date/timePositionNaut miles runAvg speedWind from/ knotsBaromVisibWave heightAir tempDewpointWater temp
2018-Feb-03 06:30N 37°11' E 012°13'712.3
2018-Feb-03 05:57N 37°09' E 012°21'511.8
2018-Feb-03 05:30N 37°08' E 012°27'611.9
2018-Feb-03 05:00N 37°06' E 012°35'1211.9
2018-Feb-03 04:00N 37°03' E 012°49'612.4
2018-Feb-03 03:30N 37°02' E 012°57'1912.6
2018-Feb-03 02:00N 36°57' E 013°19'612.8
2018-Feb-03 01:30N 36°55' E 013°27'712.9
2018-Feb-03 01:00N 36°54' E 013°35'713.1
2018-Feb-03 00:30N 36°52' E 013°43'612.7
2018-Feb-03 00:00N 36°50' E 013°51'612.9
2018-Feb-02 23:31N 36°48' E 013°58'612.9
2018-Feb-02 23:00N 36°46' E 014°06'713.1
2018-Feb-02 22:30N 36°44' E 014°14'612.7
2018-Feb-02 22:00N 36°43' E 014°21'612.2
2018-Feb-02 21:30N 36°41' E 014°29'611.8
2018-Feb-02 20:58N 36°39' E 014°36'3812.6
2018-Feb-02 17:59N 36°33' E 015°22'613.1
2018-Feb-02 17:30N 36°34' E 015°30'613.1
2018-Feb-02 17:00N 36°34' E 015°38'  
2018-Jan-28 18:18N 46°15' E 030°54'412.1
2018-Jan-28 18:00N 46°19' E 030°55'612.3
2018-Jan-28 17:30N 46°25' E 030°55'612.5
2018-Jan-28 17:00N 46°31' E 030°55'510.8
2018-Jan-28 16:30N 46°34' E 031°02'5 9.0
2018-Jan-28 16:00N 46°35' E 031°08'31 9.9
2018-Jan-28 12:54N 46°37' E 031°53'3 8.8
2018-Jan-28 12:30N 46°40' E 031°56'4 8.6
2018-Jan-28 12:00N 46°44' E 031°55'3 6.6
2018-Jan-28 11:30N 46°48' E 031°53'5 9.1
2018-Jan-28 10:59N 46°51' E 031°57'1 1.7
2018-Jan-28 10:29N 46°51' E 031°59'0 0.0
2018-Jan-28 10:00N 46°51' E 031°59'0 0.0
2018-Jan-28 09:30N 46°51' E 031°59'0 0.0
2018-Jan-28 09:00N 46°51' E 031°59'0 0.0
2018-Jan-28 08:30N 46°51' E 031°59'0 0.0
2018-Jan-28 08:00N 46°51' E 031°59'0 0.0
2018-Jan-28 07:30N 46°51' E 031°59'0 0.0
2018-Jan-28 07:00N 46°51' E 031°59'0 0.0
2018-Jan-28 06:30N 46°51' E 031°59'0 0.0
2018-Jan-28 06:00N 46°51' E 031°59'0 0.0
2018-Jan-28 05:26N 46°51' E 031°59'0 0.0
2018-Jan-28 05:00N 46°51' E 031°59'0 0.0
2018-Jan-28 04:24N 46°51' E 031°59'0 0.0
2018-Jan-28 03:56N 46°51' E 031°59'0 0.0
2018-Jan-28 03:30N 46°51' E 031°59'0 0.0
2018-Jan-28 03:00N 46°51' E 031°59'0 0.0
2018-Jan-28 02:30N 46°51' E 031°59'0 0.0
2018-Jan-28 02:00N 46°51' E 031°59'0 0.0
2018-Jan-28 01:30N 46°51' E 031°59'0 0.0
2018-Jan-28 01:00N 46°51' E 031°59'0 0.0
2018-Jan-28 00:30N 46°51' E 031°59'0 0.0
2018-Jan-28 00:00N 46°51' E 031°59'0 0.0
2018-Jan-27 23:30N 46°51' E 031°59'0 0.0
2018-Jan-27 23:00N 46°51' E 031°59'0 0.0
2018-Jan-27 22:30N 46°51' E 031°59'0 0.0
2018-Jan-27 22:00N 46°51' E 031°59'0 0.0
2018-Jan-27 21:30N 46°51' E 031°59'0 0.0
2018-Jan-27 21:00N 46°51' E 031°59'0 0.0
2018-Jan-27 20:26N 46°51' E 031°59'0 0.0
2018-Jan-27 20:00N 46°51' E 031°59'0 0.0
2018-Jan-27 19:30N 46°51' E 031°59'0 0.0
2018-Jan-27 19:00N 46°51' E 031°59'0 0.0
2018-Jan-27 18:30N 46°51' E 031°59'0 0.0
2018-Jan-27 18:00N 46°51' E 031°59'0 0.0
2018-Jan-27 17:30N 46°51' E 031°59'0 0.0
2018-Jan-27 16:54N 46°51' E 031°59'0 0.0
2018-Jan-27 16:30N 46°51' E 031°59'0 0.0
2018-Jan-27 15:54N 46°51' E 031°59'0 0.0
2018-Jan-27 15:30N 46°51' E 031°59'0 0.0
2018-Jan-27 15:00N 46°51' E 031°59'0 0.0
2018-Jan-27 14:30N 46°51' E 031°59'0 0.0
2018-Jan-27 14:00N 46°51' E 031°59'0 0.0
2018-Jan-27 13:30N 46°51' E 031°59'0 0.0
2018-Jan-27 13:00N 46°51' E 031°59'0 0.0
2018-Jan-27 12:30N 46°51' E 031°59'0 0.0
2018-Jan-27 11:57N 46°51' E 031°59'0 0.0
2018-Jan-27 11:30N 46°51' E 031°59'0 0.0
2018-Jan-27 10:57N 46°51' E 031°59'0 0.0
2018-Jan-27 10:30N 46°51' E 031°59'0 0.0
2018-Jan-27 10:00N 46°51' E 031°59'0 0.0
2018-Jan-27 09:30N 46°51' E 031°59'0 0.0
2018-Jan-27 09:00N 46°51' E 031°59'0 0.0
2018-Jan-27 08:30N 46°51' E 031°59'0 0.0
2018-Jan-27 08:00N 46°51' E 031°59'0 0.0
2018-Jan-27 07:30N 46°51' E 031°59'0 0.0
2018-Jan-27 07:00N 46°51' E 031°59'0 0.0
2018-Jan-27 06:30N 46°51' E 031°59'0 0.0
2018-Jan-27 05:57N 46°51' E 031°59'0 0.0
2018-Jan-27 05:30N 46°51' E 031°59'0 0.0
2018-Jan-27 04:57N 46°51' E 031°59'0 0.0
2018-Jan-27 04:30N 46°51' E 031°59'0 0.0
2018-Jan-27 04:00N 46°51' E 031°59'0 0.0
2018-Jan-27 03:27N 46°51' E 031°59'0 0.0
2018-Jan-27 03:00N 46°51' E 031°59'0 0.0
2018-Jan-27 02:30N 46°51' E 031°59'0 0.0
2018-Jan-27 02:00N 46°51' E 031°59'0 0.0
2018-Jan-27 01:30N 46°51' E 031°59'0 0.0
2018-Jan-27 01:00N 46°51' E 031°59'0 0.0
2018-Jan-27 00:30N 46°51' E 031°59'0 0.0
2018-Jan-26 23:58N 46°51' E 031°59'0 0.0
2018-Jan-26 23:28N 46°51' E 031°59'0 0.0
2018-Jan-26 22:58N 46°51' E 031°59'0 0.0
2018-Jan-26 22:28N 46°51' E 031°59'0 0.0
2018-Jan-26 21:58N 46°51' E 031°59'0 0.0
2018-Jan-26 21:25N 46°51' E 031°59'0 0.0
2018-Jan-26 20:58N 46°51' E 031°59'0 0.0
2018-Jan-26 20:28N 46°51' E 031°59'0 0.0
2018-Jan-26 19:58N 46°51' E 031°59'0 0.0
2018-Jan-26 19:28N 46°51' E 031°59'0 0.0
2018-Jan-26 18:58N 46°51' E 031°59'0 0.0
2018-Jan-26 18:28N 46°51' E 031°59'0 0.0
2018-Jan-26 17:58N 46°51' E 031°59'0 0.0
2018-Jan-26 17:28N 46°51' E 031°59'0 0.0
2018-Jan-26 16:58N 46°51' E 031°59'0 0.0
2018-Jan-26 16:28N 46°51' E 031°59'0 0.0
2018-Jan-26 15:58N 46°51' E 031°59'0 0.0
2018-Jan-26 15:28N 46°51' E 031°59'0 0.0
2018-Jan-26 14:58N 46°51' E 031°59'0 0.0
2018-Jan-26 14:28N 46°51' E 031°59'0 0.0
2018-Jan-26 13:58N 46°51' E 031°59'0 0.0
2018-Jan-26 13:28N 46°51' E 031°59'0 0.0
2018-Jan-26 12:58N 46°51' E 031°59'0 0.0
2018-Jan-26 12:28N 46°51' E 031°59'0 0.0
2018-Jan-26 11:58N 46°51' E 031°59'0 0.0
2018-Jan-26 11:28N 46°51' E 031°59'0 0.0
2018-Jan-26 10:59N 46°51' E 031°59'0 0.0
2018-Jan-26 10:29N 46°51' E 031°59'0 0.0
2018-Jan-26 09:59N 46°51' E 031°59'0 0.0
2018-Jan-26 09:29N 46°51' E 031°59'0 0.0
2018-Jan-26 08:59N 46°51' E 031°59'0 0.0
2018-Jan-26 08:29N 46°51' E 031°59'0 0.0
2018-Jan-26 07:59N 46°51' E 031°59'0 0.0
2018-Jan-26 07:29N 46°51' E 031°59'0 0.0
2018-Jan-26 06:59N 46°51' E 031°59'0 0.0
2018-Jan-26 06:29N 46°51' E 031°59'0 0.0
2018-Jan-26 05:59N 46°51' E 031°59'0 0.0
2018-Jan-26 05:29N 46°51' E 031°59'0 0.0
2018-Jan-26 04:59N 46°51' E 031°59'0 0.0
2018-Jan-26 04:29N 46°51' E 031°59'0 0.0
2018-Jan-26 03:59N 46°51' E 031°59'0 0.0
2018-Jan-26 03:29N 46°51' E 031°59'0 0.0
2018-Jan-26 02:59N 46°51' E 031°59'0 0.0
2018-Jan-26 02:29N 46°51' E 031°59'0 0.0
2018-Jan-26 01:59N 46°51' E 031°59'0 0.0
2018-Jan-26 01:29N 46°51' E 031°59'0 0.0
2018-Jan-26 00:59N 46°51' E 031°59'0 0.0
2018-Jan-26 00:29N 46°51' E 031°59'0 0.0
2018-Jan-25 23:59N 46°51' E 031°59'0 0.0
2018-Jan-25 23:29N 46°51' E 031°59'0 0.0
2018-Jan-25 22:59N 46°51' E 031°59'0 0.0
2018-Jan-25 22:29N 46°51' E 031°59'0 0.0
2018-Jan-25 21:59N 46°51' E 031°59'0 0.0
2018-Jan-25 21:29N 46°51' E 031°59'0 0.0
2018-Jan-25 20:56N 46°51' E 031°59'0 0.0
2018-Jan-25 20:29N 46°51' E 031°59'0 0.0
2018-Jan-25 19:59N 46°51' E 031°59'0 0.0
2018-Jan-25 19:26N 46°51' E 031°59'0 0.0
2018-Jan-25 18:56N 46°51' E 031°59'0 0.0
2018-Jan-25 18:29N 46°51' E 031°59'0 0.0
2018-Jan-25 17:59N 46°51' E 031°59'0 0.0
2018-Jan-25 17:29N 46°51' E 031°59'0 0.0
2018-Jan-25 16:59N 46°51' E 031°59'0 0.0
2018-Jan-25 16:29N 46°51' E 031°59'0 0.0
2018-Jan-25 15:59N 46°51' E 031°59'0 0.0
2018-Jan-25 15:29N 46°51' E 031°59'0 0.0
2018-Jan-25 14:59N 46°51' E 031°59'0 0.0
2018-Jan-25 14:29N 46°51' E 031°59'0 0.0
2018-Jan-25 13:59N 46°51' E 031°59'0 0.0
2018-Jan-25 13:29N 46°51' E 031°59'0 0.0
2018-Jan-25 12:59N 46°51' E 031°59'0 0.0
2018-Jan-25 12:29N 46°51' E 031°59'0 0.0
2018-Jan-25 11:59N 46°51' E 031°59'0 0.0
2018-Jan-25 11:30N 46°51' E 031°59'0 0.0
2018-Jan-25 11:00N 46°51' E 031°59'0 0.0
2018-Jan-25 10:30N 46°51' E 031°59'0 0.0
2018-Jan-25 10:00N 46°51' E 031°59'0 0.0
2018-Jan-25 09:30N 46°51' E 031°59'0 0.0
2018-Jan-25 08:59N 46°51' E 031°59'0 0.0
2018-Jan-25 08:29N 46°51' E 031°59'0 0.0
2018-Jan-25 08:00N 46°51' E 031°59'0 0.0
2018-Jan-25 07:29N 46°51' E 031°59'0 0.0
2018-Jan-25 06:59N 46°51' E 031°59'0 0.0
2018-Jan-25 06:30N 46°51' E 031°59'0 0.0
2018-Jan-25 05:59N 46°51' E 031°59'0 0.0
2018-Jan-25 05:30N 46°51' E 031°59'0 0.0
2018-Jan-25 05:00N 46°51' E 031°59'0 0.0
2018-Jan-25 04:29N 46°51' E 031°59'0 0.0
2018-Jan-25 04:00N 46°51' E 031°59'0 0.0
2018-Jan-25 03:29N 46°51' E 031°59'0 0.0
2018-Jan-25 02:57N 46°51' E 031°59'0 0.0
2018-Jan-25 02:29N 46°51' E 031°59'0 0.0
2018-Jan-25 02:00N 46°51' E 031°59'0 0.0
2018-Jan-25 01:30N 46°51' E 031°59'0 0.0
2018-Jan-25 00:59N 46°51' E 031°59'0 0.0
2018-Jan-25 00:30N 46°51' E 031°59'0 0.0
2018-Jan-25 00:00N 46°51' E 031°59'0 0.0
2018-Jan-24 23:29N 46°51' E 031°59'0 0.0
2018-Jan-24 22:59N 46°51' E 031°59'0 0.0
2018-Jan-24 22:29N 46°51' E 031°59'0 0.0
2018-Jan-24 22:00N 46°51' E 031°59'1 1.7
2018-Jan-24 21:30N 46°51' E 031°58'3 5.3
2018-Jan-24 21:00N 46°49' E 031°55'5 9.4
2018-Jan-24 20:30N 46°45' E 031°54'510.5
2018-Jan-24 20:00N 46°40' E 031°56'611.1
2018-Jan-24 19:29N 46°36' E 031°49'611.4
2018-Jan-24 19:00N 46°36' E 031°41'611.2
2018-Jan-24 18:27N 46°34' E 031°32'6 8.8
2018-Jan-24 17:49N 46°35' E 031°24'412.4
2018-Jan-24 17:31N 46°35' E 031°19'612.5
2018-Jan-24 17:00N 46°35' E 031°10'611.5
2018-Jan-24 16:30N 46°34' E 031°02'3 5.9
2018-Jan-24 16:00N 46°33' E 030°57'4 7.2
2018-Jan-24 15:30N 46°29' E 030°57'4 8.4
2018-Jan-24 15:00N 46°25' E 030°57'611.6
2018-Jan-24 14:31N 46°19' E 030°57'712.6
2018-Jan-24 13:55N 46°13' E 031°03'  

Dump ship's entire track history